sensor_id;sensor_type;location;lat;lon;timestamp;temperature;humidity
13659;DHT22;6902;52.158;11.574;2022-09-03T00:00:23;16.80;99.90
13659;DHT22;6902;52.158;11.574;2022-09-03T00:02:56;16.80;99.90
13659;DHT22;6902;52.158;11.574;2022-09-03T00:05:34;16.70;99.90
13659;DHT22;6902;52.158;11.574;2022-09-03T00:08:06;16.70;99.90
13659;DHT22;6902;52.158;11.574;2022-09-03T00:10:40;16.70;99.90
13659;DHT22;6902;52.158;11.574;2022-09-03T00:25:42;16.40;99.90
13659;DHT22;6902;52.158;11.574;2022-09-03T00:28:13;16.40;99.90
13659;DHT22;6902;52.158;11.574;2022-09-03T00:30:45;16.30;99.90
13659;DHT22;6902;52.158;11.574;2022-09-03T00:33:22;16.30;99.90
13659;DHT22;6902;52.158;11.574;2022-09-03T00:36:01;16.30;99.90
13659;DHT22;6902;52.158;11.574;2022-09-03T00:38:28;16.30;99.90
13659;DHT22;6902;52.158;11.574;2022-09-03T00:43:38;16.30;99.90
13659;DHT22;6902;52.158;11.574;2022-09-03T00:46:16;16.30;99.90
13659;DHT22;6902;52.158;11.574;2022-09-03T00:54:07;16.10;99.90
13659;DHT22;6902;52.158;11.574;2022-09-03T00:56:43;16.10;99.90
13659;DHT22;6902;52.158;11.574;2022-09-03T01:01:49;16.10;99.90
13659;DHT22;6902;52.158;11.574;2022-09-03T01:04:28;16.10;99.90
13659;DHT22;6902;52.158;11.574;2022-09-03T01:07:06;16.10;99.90
13659;DHT22;6902;52.158;11.574;2022-09-03T01:14:49;16.00;99.90
13659;DHT22;6902;52.158;11.574;2022-09-03T02:01:02;15.90;99.90
13659;DHT22;6902;52.158;11.574;2022-09-03T03:00:33;15.30;99.90
13659;DHT22;6902;52.158;11.574;2022-09-03T03:03:00;14.10;99.90
13659;DHT22;6902;52.158;11.574;2022-09-03T03:32:35;13.00;99.90
13659;DHT22;6902;52.158;11.574;2022-09-03T03:35:04;12.90;99.90
13659;DHT22;6902;52.158;11.574;2022-09-03T06:20:35;15.50;99.90
13659;DHT22;6902;52.158;11.574;2022-09-03T06:23:01;15.70;99.90
13659;DHT22;6902;52.158;11.574;2022-09-03T06:35:20;15.90;99.90
13659;DHT22;6902;52.158;11.574;2022-09-03T06:52:51;16.80;99.90
13659;DHT22;6902;52.158;11.574;2022-09-03T06:55:20;17.80;99.90
13659;DHT22;6902;52.158;11.574;2022-09-03T06:57:47;18.00;99.90
13659;DHT22;6902;52.158;11.574;2022-09-03T07:00:14;18.10;99.90
13659;DHT22;6902;52.158;11.574;2022-09-03T07:02:41;18.30;99.90
13659;DHT22;6902;52.158;11.574;2022-09-03T07:05:10;18.40;99.90
13659;DHT22;6902;52.158;11.574;2022-09-03T07:07:36;18.50;99.90
13659;DHT22;6902;52.158;11.574;2022-09-03T07:10:05;18.60;99.90
13659;DHT22;6902;52.158;11.574;2022-09-03T07:12:35;18.80;99.90
13659;DHT22;6902;52.158;11.574;2022-09-03T07:15:02;18.90;99.90
13659;DHT22;6902;52.158;11.574;2022-09-03T07:19:56;18.90;99.90
13659;DHT22;6902;52.158;11.574;2022-09-03T07:32:13;19.20;99.90
13659;DHT22;6902;52.158;11.574;2022-09-03T07:34:40;19.70;99.90
13659;DHT22;6902;52.158;11.574;2022-09-03T07:37:07;19.80;99.90
13659;DHT22;6902;52.158;11.574;2022-09-03T07:39:33;19.80;99.90
13659;DHT22;6902;52.158;11.574;2022-09-03T07:44:29;20.00;99.90
13659;DHT22;6902;52.158;11.574;2022-09-03T07:51:50;20.50;99.90
13659;DHT22;6902;52.158;11.574;2022-09-03T07:54:18;20.60;99.90
13659;DHT22;6902;52.158;11.574;2022-09-03T07:56:46;20.70;99.90
13659;DHT22;6902;52.158;11.574;2022-09-03T07:59:13;20.80;99.90
13659;DHT22;6902;52.158;11.574;2022-09-03T08:26:28;21.70;99.90
13659;DHT22;6902;52.158;11.574;2022-09-03T08:28:55;21.70;99.90
13659;DHT22;6902;52.158;11.574;2022-09-03T08:31:23;21.70;99.90
13659;DHT22;6902;52.158;11.574;2022-09-03T08:33:52;21.80;99.90
13659;DHT22;6902;52.158;11.574;2022-09-03T08:36:22;21.60;99.90
13659;DHT22;6902;52.158;11.574;2022-09-03T08:38:50;21.80;99.90
13659;DHT22;6902;52.158;11.574;2022-09-03T08:49:06;22.30;99.90
13659;DHT22;6902;52.158;11.574;2022-09-03T08:51:37;22.30;99.90
13659;DHT22;6902;52.158;11.574;2022-09-03T08:54:06;22.30;99.90
13659;DHT22;6902;52.158;11.574;2022-09-03T08:56:37;22.30;99.90
13659;DHT22;6902;52.158;11.574;2022-09-03T09:01:42;22.60;99.90
13659;DHT22;6902;52.158;11.574;2022-09-03T09:04:21;22.70;99.90
13659;DHT22;6902;52.158;11.574;2022-09-03T09:06:56;22.80;99.90
13659;DHT22;6902;52.158;11.574;2022-09-03T09:09:32;23.00;99.90
13659;DHT22;6902;52.158;11.574;2022-09-03T09:22:27;23.40;99.90
13659;DHT22;6902;52.158;11.574;2022-09-03T09:24:57;23.30;99.90
13659;DHT22;6902;52.158;11.574;2022-09-03T09:27:25;23.30;99.90
13659;DHT22;6902;52.158;11.574;2022-09-03T09:29:52;23.40;99.90
13659;DHT22;6902;52.158;11.574;2022-09-03T09:32:20;23.50;99.90
13659;DHT22;6902;52.158;11.574;2022-09-03T09:34:48;23.60;99.90
13659;DHT22;6902;52.158;11.574;2022-09-03T09:37:16;23.70;99.90
13659;DHT22;6902;52.158;11.574;2022-09-03T09:44:50;23.70;99.90
13659;DHT22;6902;52.158;11.574;2022-09-03T09:47:22;23.70;99.90
13659;DHT22;6902;52.158;11.574;2022-09-03T09:49:52;23.70;99.90
13659;DHT22;6902;52.158;11.574;2022-09-03T09:52:20;23.70;99.90
13659;DHT22;6902;52.158;11.574;2022-09-03T09:54:52;23.70;99.90
13659;DHT22;6902;52.158;11.574;2022-09-03T09:57:25;23.50;99.90
13659;DHT22;6902;52.158;11.574;2022-09-03T10:00:03;23.40;99.90
13659;DHT22;6902;52.158;11.574;2022-09-03T10:43:20;24.50;99.90
13659;DHT22;6902;52.158;11.574;2022-09-03T10:46:01;24.30;99.90
13659;DHT22;6902;52.158;11.574;2022-09-03T10:49:03;24.10;99.90
13659;DHT22;6902;52.158;11.574;2022-09-03T10:51:37;24.10;99.90
13659;DHT22;6902;52.158;11.574;2022-09-03T10:54:26;24.10;99.90
13659;DHT22;6902;52.158;11.574;2022-09-03T10:57:05;24.00;99.90
13659;DHT22;6902;52.158;11.574;2022-09-03T10:59:45;24.20;99.90
13659;DHT22;6902;52.158;11.574;2022-09-03T11:02:34;24.20;99.90
13659;DHT22;6902;52.158;11.574;2022-09-03T11:05:09;24.40;99.90
13659;DHT22;6902;52.158;11.574;2022-09-03T11:07:44;24.40;99.90
13659;DHT22;6902;52.158;11.574;2022-09-03T11:10:16;24.60;99.90
13659;DHT22;6902;52.158;11.574;2022-09-03T11:12:47;24.70;99.90
13659;DHT22;6902;52.158;11.574;2022-09-03T11:15:22;24.50;99.90
13659;DHT22;6902;52.158;11.574;2022-09-03T11:17:53;24.30;99.90
13659;DHT22;6902;52.158;11.574;2022-09-03T11:20:23;24.30;99.90
13659;DHT22;6902;52.158;11.574;2022-09-03T11:22:53;24.20;99.90
13659;DHT22;6902;52.158;11.574;2022-09-03T11:25:24;24.30;99.90
13659;DHT22;6902;52.158;11.574;2022-09-03T11:27:58;24.50;99.90
13659;DHT22;6902;52.158;11.574;2022-09-03T11:30:46;24.60;99.90
13659;DHT22;6902;52.158;11.574;2022-09-03T11:33:18;24.90;99.90
13659;DHT22;6902;52.158;11.574;2022-09-03T11:35:55;25.30;99.90
13659;DHT22;6902;52.158;11.574;2022-09-03T11:38:23;25.40;99.90
13659;DHT22;6902;52.158;11.574;2022-09-03T11:40:59;25.10;99.90
13659;DHT22;6902;52.158;11.574;2022-09-03T11:43:29;24.90;99.90
13659;DHT22;6902;52.158;11.574;2022-09-03T11:46:06;24.70;99.90
13659;DHT22;6902;52.158;11.574;2022-09-03T11:48:39;24.70;99.90
13659;DHT22;6902;52.158;11.574;2022-09-03T11:51:28;24.80;99.90
13659;DHT22;6902;52.158;11.574;2022-09-03T11:53:58;24.80;99.90
13659;DHT22;6902;52.158;11.574;2022-09-03T11:56:25;24.90;99.90
13659;DHT22;6902;52.158;11.574;2022-09-03T11:59:01;24.90;99.90
13659;DHT22;6902;52.158;11.574;2022-09-03T12:01:31;24.80;99.90
13659;DHT22;6902;52.158;11.574;2022-09-03T12:04:01;24.70;99.90
13659;DHT22;6902;52.158;11.574;2022-09-03T12:06:53;24.80;99.90
13659;DHT22;6902;52.158;11.574;2022-09-03T12:09:47;24.80;99.90
13659;DHT22;6902;52.158;11.574;2022-09-03T12:12:30;24.50;99.90
13659;DHT22;6902;52.158;11.574;2022-09-03T12:15:04;24.40;99.90
13659;DHT22;6902;52.158;11.574;2022-09-03T12:17:43;24.40;99.90
13659;DHT22;6902;52.158;11.574;2022-09-03T12:20:14;24.40;99.90
13659;DHT22;6902;52.158;11.574;2022-09-03T12:22:41;24.50;99.90
13659;DHT22;6902;52.158;11.574;2022-09-03T12:25:11;24.60;99.90
13659;DHT22;6902;52.158;11.574;2022-09-03T12:27:39;24.60;99.90
13659;DHT22;6902;52.158;11.574;2022-09-03T12:30:15;24.50;99.90
13659;DHT22;6902;52.158;11.574;2022-09-03T12:32:44;24.60;99.90
13659;DHT22;6902;52.158;11.574;2022-09-03T12:35:13;24.60;99.90
13659;DHT22;6902;52.158;11.574;2022-09-03T12:37:41;24.70;99.90
13659;DHT22;6902;52.158;11.574;2022-09-03T12:40:16;24.70;99.90
13659;DHT22;6902;52.158;11.574;2022-09-03T12:42:45;24.70;99.90
13659;DHT22;6902;52.158;11.574;2022-09-03T12:45:13;24.60;99.90
13659;DHT22;6902;52.158;11.574;2022-09-03T12:47:42;24.40;99.90
13659;DHT22;6902;52.158;11.574;2022-09-03T12:52:43;24.00;99.90
13659;DHT22;6902;52.158;11.574;2022-09-03T12:55:20;23.80;99.90
13659;DHT22;6902;52.158;11.574;2022-09-03T12:57:51;23.70;99.90
13659;DHT22;6902;52.158;11.574;2022-09-03T13:00:20;23.70;99.90
13659;DHT22;6902;52.158;11.574;2022-09-03T13:02:52;23.70;99.90
13659;DHT22;6902;52.158;11.574;2022-09-03T13:05:32;23.70;99.90
13659;DHT22;6902;52.158;11.574;2022-09-03T13:08:01;23.60;99.90
13659;DHT22;6902;52.158;11.574;2022-09-03T13:10:32;23.50;99.90
13659;DHT22;6902;52.158;11.574;2022-09-03T13:13:20;23.40;99.90
13659;DHT22;6902;52.158;11.574;2022-09-03T13:16:13;23.40;99.90
13659;DHT22;6902;52.158;11.574;2022-09-03T13:18:49;23.50;99.90
13659;DHT22;6902;52.158;11.574;2022-09-03T13:21:30;23.60;99.90
13659;DHT22;6902;52.158;11.574;2022-09-03T13:27:00;23.70;99.90
13659;DHT22;6902;52.158;11.574;2022-09-03T13:29:38;23.60;99.90
13659;DHT22;6902;52.158;11.574;2022-09-03T13:32:17;23.60;99.90
13659;DHT22;6902;52.158;11.574;2022-09-03T13:34:52;23.70;99.90
13659;DHT22;6902;52.158;11.574;2022-09-03T13:37:26;23.80;99.90
13659;DHT22;6902;52.158;11.574;2022-09-03T13:39:57;23.90;99.90
13659;DHT22;6902;52.158;11.574;2022-09-03T13:42:30;23.80;99.90
13659;DHT22;6902;52.158;11.574;2022-09-03T13:45:04;23.80;99.90
13659;DHT22;6902;52.158;11.574;2022-09-03T13:47:38;23.70;99.90
13659;DHT22;6902;52.158;11.574;2022-09-03T13:50:28;23.60;99.90
13659;DHT22;6902;52.158;11.574;2022-09-03T13:53:00;23.60;99.90
13659;DHT22;6902;52.158;11.574;2022-09-03T13:55:32;23.70;99.90
13659;DHT22;6902;52.158;11.574;2022-09-03T13:58:05;23.70;99.90
13659;DHT22;6902;52.158;11.574;2022-09-03T14:00:38;23.70;99.90
13659;DHT22;6902;52.158;11.574;2022-09-03T14:03:08;23.80;99.90
13659;DHT22;6902;52.158;11.574;2022-09-03T14:05:49;23.70;99.90
13659;DHT22;6902;52.158;11.574;2022-09-03T14:08:24;23.60;99.90
13659;DHT22;6902;52.158;11.574;2022-09-03T14:10:59;23.60;99.90
13659;DHT22;6902;52.158;11.574;2022-09-03T14:13:37;23.70;99.90
13659;DHT22;6902;52.158;11.574;2022-09-03T14:16:12;23.80;99.90
13659;DHT22;6902;52.158;11.574;2022-09-03T14:18:43;23.90;99.90
13659;DHT22;6902;52.158;11.574;2022-09-03T14:21:16;24.00;99.90
13659;DHT22;6902;52.158;11.574;2022-09-03T14:23:49;24.00;99.90
13659;DHT22;6902;52.158;11.574;2022-09-03T14:26:20;23.80;99.90
13659;DHT22;6902;52.158;11.574;2022-09-03T14:28:48;23.70;99.90
13659;DHT22;6902;52.158;11.574;2022-09-03T14:31:22;23.60;99.90
13659;DHT22;6902;52.158;11.574;2022-09-03T14:33:59;23.60;99.90
13659;DHT22;6902;52.158;11.574;2022-09-03T14:36:34;23.50;99.90
13659;DHT22;6902;52.158;11.574;2022-09-03T14:39:26;23.40;99.90
13659;DHT22;6902;52.158;11.574;2022-09-03T14:42:24;23.40;99.90
13659;DHT22;6902;52.158;11.574;2022-09-03T14:45:14;23.40;99.90
13659;DHT22;6902;52.158;11.574;2022-09-03T14:47:53;23.30;99.90
13659;DHT22;6902;52.158;11.574;2022-09-03T14:50:37;23.20;99.90
13659;DHT22;6902;52.158;11.574;2022-09-03T14:53:21;23.10;99.90
13659;DHT22;6902;52.158;11.574;2022-09-03T14:56:09;23.10;99.90
13659;DHT22;6902;52.158;11.574;2022-09-03T14:58:53;23.00;99.90
13659;DHT22;6902;52.158;11.574;2022-09-03T15:01:26;23.10;99.90
13659;DHT22;6902;52.158;11.574;2022-09-03T15:04:42;23.10;99.90
13659;DHT22;6902;52.158;11.574;2022-09-03T15:07:29;23.20;99.90
13659;DHT22;6902;52.158;11.574;2022-09-03T15:10:06;23.20;99.90
13659;DHT22;6902;52.158;11.574;2022-09-03T15:12:42;23.10;99.90
13659;DHT22;6902;52.158;11.574;2022-09-03T15:15:12;23.10;99.90
13659;DHT22;6902;52.158;11.574;2022-09-03T15:17:53;23.00;99.90
13659;DHT22;6902;52.158;11.574;2022-09-03T15:20:30;22.90;99.90
13659;DHT22;6902;52.158;11.574;2022-09-03T15:23:26;22.90;99.90
13659;DHT22;6902;52.158;11.574;2022-09-03T15:26:16;22.90;99.90
13659;DHT22;6902;52.158;11.574;2022-09-03T15:28:57;22.90;99.90
13659;DHT22;6902;52.158;11.574;2022-09-03T15:31:41;22.90;99.90
13659;DHT22;6902;52.158;11.574;2022-09-03T15:34:18;22.80;99.90
13659;DHT22;6902;52.158;11.574;2022-09-03T15:36:54;22.70;99.90
13659;DHT22;6902;52.158;11.574;2022-09-03T15:39:25;22.70;99.90
13659;DHT22;6902;52.158;11.574;2022-09-03T15:41:57;22.70;99.90
13659;DHT22;6902;52.158;11.574;2022-09-03T15:44:34;22.70;99.90
13659;DHT22;6902;52.158;11.574;2022-09-03T15:47:04;22.70;99.90
13659;DHT22;6902;52.158;11.574;2022-09-03T15:49:43;22.70;99.90
13659;DHT22;6902;52.158;11.574;2022-09-03T15:52:29;22.70;99.90
13659;DHT22;6902;52.158;11.574;2022-09-03T15:55:05;22.80;99.90
13659;DHT22;6902;52.158;11.574;2022-09-03T15:57:39;22.80;99.90
13659;DHT22;6902;52.158;11.574;2022-09-03T16:00:11;22.70;99.90
13659;DHT22;6902;52.158;11.574;2022-09-03T16:02:43;22.70;99.90
13659;DHT22;6902;52.158;11.574;2022-09-03T16:05:13;22.70;99.90
13659;DHT22;6902;52.158;11.574;2022-09-03T16:08:05;22.60;99.90
13659;DHT22;6902;52.158;11.574;2022-09-03T16:10:46;22.60;99.90
13659;DHT22;6902;52.158;11.574;2022-09-03T16:13:43;22.60;99.90
13659;DHT22;6902;52.158;11.574;2022-09-03T16:16:15;22.50;99.90
13659;DHT22;6902;52.158;11.574;2022-09-03T16:18:51;22.50;99.90
13659;DHT22;6902;52.158;11.574;2022-09-03T16:21:22;22.50;99.90
13659;DHT22;6902;52.158;11.574;2022-09-03T16:23:55;22.50;99.90
13659;DHT22;6902;52.158;11.574;2022-09-03T16:26:28;22.50;99.90
13659;DHT22;6902;52.158;11.574;2022-09-03T16:29:00;22.50;99.90
13659;DHT22;6902;52.158;11.574;2022-09-03T16:31:40;22.50;99.90
13659;DHT22;6902;52.158;11.574;2022-09-03T16:34:16;22.40;99.90
13659;DHT22;6902;52.158;11.574;2022-09-03T16:36:53;22.40;99.90
13659;DHT22;6902;52.158;11.574;2022-09-03T16:39:31;22.50;99.90
13659;DHT22;6902;52.158;11.574;2022-09-03T16:42:06;22.50;99.90
13659;DHT22;6902;52.158;11.574;2022-09-03T16:44:49;22.40;99.90
13659;DHT22;6902;52.158;11.574;2022-09-03T16:47:28;22.40;99.90
13659;DHT22;6902;52.158;11.574;2022-09-03T16:50:07;22.40;99.90
13659;DHT22;6902;52.158;11.574;2022-09-03T16:52:44;22.40;99.90
13659;DHT22;6902;52.158;11.574;2022-09-03T16:55:22;22.30;99.90
13659;DHT22;6902;52.158;11.574;2022-09-03T16:58:02;22.30;99.90
13659;DHT22;6902;52.158;11.574;2022-09-03T17:00:42;22.20;99.90
13659;DHT22;6902;52.158;11.574;2022-09-03T17:03:44;22.10;99.90
13659;DHT22;6902;52.158;11.574;2022-09-03T17:09:22;22.10;99.90
13659;DHT22;6902;52.158;11.574;2022-09-03T17:12:01;22.00;99.90
13659;DHT22;6902;52.158;11.574;2022-09-03T17:18:10;21.90;99.90
13659;DHT22;6902;52.158;11.574;2022-09-03T17:20:48;21.80;99.90
13659;DHT22;6902;52.158;11.574;2022-09-03T17:23:41;21.80;99.90
13659;DHT22;6902;52.158;11.574;2022-09-03T17:26:11;21.70;99.90
13659;DHT22;6902;52.158;11.574;2022-09-03T17:28:53;21.60;99.90
13659;DHT22;6902;52.158;11.574;2022-09-03T17:31:29;21.60;99.90
13659;DHT22;6902;52.158;11.574;2022-09-03T17:34:08;21.50;99.90
13659;DHT22;6902;52.158;11.574;2022-09-03T17:36:58;21.40;99.90
13659;DHT22;6902;52.158;11.574;2022-09-03T17:39:47;21.40;99.90
13659;DHT22;6902;52.158;11.574;2022-09-03T17:42:23;21.40;99.90
13659;DHT22;6902;52.158;11.574;2022-09-03T17:45:06;21.30;99.90
13659;DHT22;6902;52.158;11.574;2022-09-03T17:47:55;21.20;99.90
13659;DHT22;6902;52.158;11.574;2022-09-03T17:50:29;21.10;99.90
13659;DHT22;6902;52.158;11.574;2022-09-03T17:53:02;21.10;99.90
13659;DHT22;6902;52.158;11.574;2022-09-03T17:55:36;21.10;99.90
13659;DHT22;6902;52.158;11.574;2022-09-03T17:58:10;21.00;99.90
13659;DHT22;6902;52.158;11.574;2022-09-03T18:00:43;20.90;99.90
13659;DHT22;6902;52.158;11.574;2022-09-03T18:03:20;20.90;99.90
13659;DHT22;6902;52.158;11.574;2022-09-03T18:05:51;20.90;99.90
13659;DHT22;6902;52.158;11.574;2022-09-03T18:08:32;20.90;99.90
13659;DHT22;6902;52.158;11.574;2022-09-03T18:11:08;20.80;99.90
13659;DHT22;6902;52.158;11.574;2022-09-03T18:13:44;20.80;99.90
13659;DHT22;6902;52.158;11.574;2022-09-03T18:16:16;20.70;99.90
13659;DHT22;6902;52.158;11.574;2022-09-03T18:18:46;20.70;99.90
13659;DHT22;6902;52.158;11.574;2022-09-03T18:21:18;20.60;99.90
13659;DHT22;6902;52.158;11.574;2022-09-03T18:24:17;20.60;99.90
13659;DHT22;6902;52.158;11.574;2022-09-03T18:27:08;20.60;99.90
13659;DHT22;6902;52.158;11.574;2022-09-03T18:29:57;20.50;99.90
13659;DHT22;6902;52.158;11.574;2022-09-03T18:32:43;20.50;99.90
13659;DHT22;6902;52.158;11.574;2022-09-03T18:35:29;20.40;99.90
13659;DHT22;6902;52.158;11.574;2022-09-03T18:38:15;20.30;99.90
13659;DHT22;6902;52.158;11.574;2022-09-03T18:41:07;20.30;99.90
13659;DHT22;6902;52.158;11.574;2022-09-03T18:43:59;20.20;99.90
13659;DHT22;6902;52.158;11.574;2022-09-03T18:46:55;20.20;99.90
13659;DHT22;6902;52.158;11.574;2022-09-03T18:49:45;20.10;99.90
13659;DHT22;6902;52.158;11.574;2022-09-03T18:52:41;20.10;99.90
13659;DHT22;6902;52.158;11.574;2022-09-03T18:55:36;20.00;99.90
13659;DHT22;6902;52.158;11.574;2022-09-03T18:58:32;20.00;99.90
13659;DHT22;6902;52.158;11.574;2022-09-03T19:01:26;20.10;99.90
13659;DHT22;6902;52.158;11.574;2022-09-03T19:04:19;20.00;99.90
13659;DHT22;6902;52.158;11.574;2022-09-03T19:07:10;20.00;99.90
13659;DHT22;6902;52.158;11.574;2022-09-03T19:09:58;19.90;99.90
13659;DHT22;6902;52.158;11.574;2022-09-03T19:12:54;19.90;99.90
13659;DHT22;6902;52.158;11.574;2022-09-03T19:15:50;19.80;99.90
13659;DHT22;6902;52.158;11.574;2022-09-03T19:18:53;19.80;99.90
13659;DHT22;6902;52.158;11.574;2022-09-03T19:21:46;19.70;99.90
13659;DHT22;6902;52.158;11.574;2022-09-03T19:24:32;19.70;99.90
13659;DHT22;6902;52.158;11.574;2022-09-03T19:27:22;19.60;99.90
13659;DHT22;6902;52.158;11.574;2022-09-03T19:30:13;19.60;99.90
13659;DHT22;6902;52.158;11.574;2022-09-03T19:33:10;19.50;99.90
13659;DHT22;6902;52.158;11.574;2022-09-03T19:38:53;19.50;99.90
13659;DHT22;6902;52.158;11.574;2022-09-03T19:41:46;19.40;99.90
13659;DHT22;6902;52.158;11.574;2022-09-03T19:44:44;19.40;99.90
13659;DHT22;6902;52.158;11.574;2022-09-03T19:47:38;19.30;99.90
13659;DHT22;6902;52.158;11.574;2022-09-03T19:55:58;19.30;99.90
13659;DHT22;6902;52.158;11.574;2022-09-03T19:58:47;19.10;99.90
13659;DHT22;6902;52.158;11.574;2022-09-03T20:01:34;19.10;99.90
13659;DHT22;6902;52.158;11.574;2022-09-03T20:04:21;19.00;99.90
13659;DHT22;6902;52.158;11.574;2022-09-03T20:07:09;19.00;99.90
13659;DHT22;6902;52.158;11.574;2022-09-03T20:09:55;18.90;99.90
13659;DHT22;6902;52.158;11.574;2022-09-03T20:12:44;18.90;99.90
13659;DHT22;6902;52.158;11.574;2022-09-03T20:15:13;18.90;99.90
13659;DHT22;6902;52.158;11.574;2022-09-03T20:17:49;18.90;99.90
13659;DHT22;6902;52.158;11.574;2022-09-03T20:20:23;18.90;99.90
13659;DHT22;6902;52.158;11.574;2022-09-03T20:22:58;18.90;99.90
13659;DHT22;6902;52.158;11.574;2022-09-03T20:25:48;18.90;99.90
13659;DHT22;6902;52.158;11.574;2022-09-03T20:28:32;18.90;99.90
13659;DHT22;6902;52.158;11.574;2022-09-03T20:31:07;18.90;99.90
13659;DHT22;6902;52.158;11.574;2022-09-03T20:36:29;18.90;99.90
13659;DHT22;6902;52.158;11.574;2022-09-03T20:39:14;18.90;99.90
13659;DHT22;6902;52.158;11.574;2022-09-03T20:41:48;18.80;99.90
13659;DHT22;6902;52.158;11.574;2022-09-03T20:44:32;18.80;99.90
13659;DHT22;6902;52.158;11.574;2022-09-03T20:47:17;18.90;99.90
13659;DHT22;6902;52.158;11.574;2022-09-03T20:49:52;18.80;99.90
13659;DHT22;6902;52.158;11.574;2022-09-03T20:52:21;18.80;99.90
13659;DHT22;6902;52.158;11.574;2022-09-03T20:55:02;18.80;99.90
13659;DHT22;6902;52.158;11.574;2022-09-03T20:57:40;18.80;99.90
13659;DHT22;6902;52.158;11.574;2022-09-03T21:00:11;18.70;99.90
13659;DHT22;6902;52.158;11.574;2022-09-03T21:02:59;18.70;99.90
13659;DHT22;6902;52.158;11.574;2022-09-03T21:08:04;18.60;99.90
13659;DHT22;6902;52.158;11.574;2022-09-03T21:10:40;18.50;99.90
13659;DHT22;6902;52.158;11.574;2022-09-03T21:13:14;18.40;99.90
13659;DHT22;6902;52.158;11.574;2022-09-03T21:15:49;18.30;99.90
13659;DHT22;6902;52.158;11.574;2022-09-03T21:18:28;18.30;99.90
13659;DHT22;6902;52.158;11.574;2022-09-03T21:21:05;18.30;99.90
13659;DHT22;6902;52.158;11.574;2022-09-03T21:23:39;18.20;99.90
13659;DHT22;6902;52.158;11.574;2022-09-03T21:26:12;18.10;99.90
13659;DHT22;6902;52.158;11.574;2022-09-03T21:28:44;18.10;99.90
13659;DHT22;6902;52.158;11.574;2022-09-03T21:31:18;18.00;99.90
13659;DHT22;6902;52.158;11.574;2022-09-03T21:33:51;17.90;99.90
13659;DHT22;6902;52.158;11.574;2022-09-03T21:36:24;17.90;99.90
13659;DHT22;6902;52.158;11.574;2022-09-03T21:38:57;17.80;99.90
13659;DHT22;6902;52.158;11.574;2022-09-03T21:41:29;17.80;99.90
13659;DHT22;6902;52.158;11.574;2022-09-03T21:44:01;17.70;99.90
13659;DHT22;6902;52.158;11.574;2022-09-03T21:46:33;17.60;99.90
13659;DHT22;6902;52.158;11.574;2022-09-03T21:49:05;17.60;99.90
13659;DHT22;6902;52.158;11.574;2022-09-03T21:51:41;17.50;99.90
13659;DHT22;6902;52.158;11.574;2022-09-03T21:54:14;17.40;99.90
13659;DHT22;6902;52.158;11.574;2022-09-03T21:57:00;17.40;99.90
13659;DHT22;6902;52.158;11.574;2022-09-03T21:59:44;17.30;99.90
13659;DHT22;6902;52.158;11.574;2022-09-03T22:02:21;17.30;99.90
13659;DHT22;6902;52.158;11.574;2022-09-03T22:04:49;17.30;99.90
13659;DHT22;6902;52.158;11.574;2022-09-03T22:07:22;17.30;99.90
13659;DHT22;6902;52.158;11.574;2022-09-03T22:09:57;17.30;99.90
13659;DHT22;6902;52.158;11.574;2022-09-03T22:12:32;17.20;99.90
13659;DHT22;6902;52.158;11.574;2022-09-03T22:15:05;17.20;99.90
13659;DHT22;6902;52.158;11.574;2022-09-03T22:17:40;17.10;99.90
13659;DHT22;6902;52.158;11.574;2022-09-03T22:20:12;17.10;99.90
13659;DHT22;6902;52.158;11.574;2022-09-03T22:22:42;17.10;99.90
13659;DHT22;6902;52.158;11.574;2022-09-03T22:25:18;17.00;99.90
13659;DHT22;6902;52.158;11.574;2022-09-03T22:27:54;17.00;99.90
13659;DHT22;6902;52.158;11.574;2022-09-03T22:30:31;16.90;99.90
13659;DHT22;6902;52.158;11.574;2022-09-03T22:33:05;16.90;99.90
13659;DHT22;6902;52.158;11.574;2022-09-03T22:35:53;16.80;99.90
13659;DHT22;6902;52.158;11.574;2022-09-03T22:38:48;16.80;99.90
13659;DHT22;6902;52.158;11.574;2022-09-03T22:41:34;16.70;99.90
13659;DHT22;6902;52.158;11.574;2022-09-03T22:44:14;16.60;99.90
13659;DHT22;6902;52.158;11.574;2022-09-03T22:46:50;16.60;99.90
13659;DHT22;6902;52.158;11.574;2022-09-03T22:49:32;16.50;99.90
13659;DHT22;6902;52.158;11.574;2022-09-03T22:52:14;16.40;99.90
13659;DHT22;6902;52.158;11.574;2022-09-03T22:54:56;16.40;99.90
13659;DHT22;6902;52.158;11.574;2022-09-03T22:57:26;16.30;99.90
13659;DHT22;6902;52.158;11.574;2022-09-03T22:59:58;16.30;99.90
13659;DHT22;6902;52.158;11.574;2022-09-03T23:02:28;16.30;99.90
13659;DHT22;6902;52.158;11.574;2022-09-03T23:05:02;16.20;99.90
13659;DHT22;6902;52.158;11.574;2022-09-03T23:07:36;16.20;99.90
13659;DHT22;6902;52.158;11.574;2022-09-03T23:43:15;16.10;99.90
13659;DHT22;6902;52.158;11.574;2022-09-03T23:45:52;15.60;99.90
13659;DHT22;6902;52.158;11.574;2022-09-03T23:48:24;15.50;99.90
13659;DHT22;6902;52.158;11.574;2022-09-03T23:51:00;15.50;99.90
13659;DHT22;6902;52.158;11.574;2022-09-03T23:53:38;15.50;99.90
13659;DHT22;6902;52.158;11.574;2022-09-03T23:56:30;15.40;99.90
13659;DHT22;6902;52.158;11.574;2022-09-03T23:59:11;15.40;99.90
